Webcam Flughafen St.Gallen-Altenrhein

Live-Bilder und Zeitraffer LSZR / ACH.

 

Live aus Altenrhein
LIVE
LSZR 290550Z 25009KT 200V290 9999 BKN095 04/M01 Q1011 NOSIG RMK A
Zeitraffer heute
2020-01-29 00:14:00
LSZR 282250Z AUTO 26004KT 200V320 9999 FEW060 SCT070 04/00 Q1007